Time;durP1;ratioP1;P1;durP2;ratioP2;P2;SDS_P1;SDS_P2;PMS_P1;PMS_P2;Temp;Humidity;BMP_temperature;BMP_pressure;BME280_temperature;BME280_humidity;BME280_pressure;Samples;Min_cycle;Max_cycle;Signal;HPM_P1;HPM_P2
2022/01/12 00:00:06;;;;;;;;;;;;;;;;;;1048483;28;2998;-71
2022/01/12 00:00:57;;;;;;;;;;;;;;;;;;1047529;28;3834;-74
2022/01/12 00:01:27;;;;;;;;;;;;;;;;;;1048894;28;1979;-73
2022/01/12 00:01:59;;;;;;;;;;;;;;;;;;1049102;28;3913;-73
2022/01/12 00:02:29;;;;;;;;;;;;;;;;;;1050482;28;4499;-74
2022/01/12 00:03:00;;;;;;;;;;;;;;;;;;1052619;28;3766;-72
2022/01/12 00:03:31;;;;;;;;;;;;;;;;;;1052269;28;2853;-73
2022/01/12 00:04:02;;;;;;;;;;;;;;;;;;1048964;28;3951;-72
2022/01/12 00:04:32;;;;;;;;;;;;;;;;;;1051998;28;2124;-74
2022/01/12 00:05:02;;;;;;;;;;;;;;;;;;1051259;28;3900;-73
2022/01/12 00:05:33;;;;;;;;;;;;;;;;;;1046997;28;2094;-73
2022/01/12 00:06:03;;;;;;;;;;;;;;;;;;1047137;28;3843;-73
2022/01/12 00:06:33;;;;;;;;;;;;;;;;;;1047105;28;2031;-71
2022/01/12 00:07:04;;;;;;;;;;;;;;;;;;1046756;28;4064;-73
2022/01/12 00:07:34;;;;;;;;;;;;;;;;;;1047845;28;3947;-74
2022/01/12 00:08:05;;;;;;;;;;;;;;;;;;1050030;28;1449;-73
2022/01/12 00:08:36;;;;;;;;;;;;;;;;;;1048009;28;4413;-73
2022/01/12 00:09:07;;;;;;;;;;;;;;;;;;1048920;28;3293;-73
2022/01/12 00:09:38;;;;;;;;;;;;;;;;;;1050790;28;3776;-74
2022/01/12 00:10:08;;;;;;;;;;;;;;;;;;1051232;28;1882;-73
2022/01/12 00:10:39;;;;;;;;;;;;;;;;;;1050867;28;3808;-74
2022/01/12 00:11:09;;;;;;;;;;;;;;;;;;1050921;28;2283;-73
2022/01/12 00:11:40;;;;;;;;;;;;;;;;;;1050683;28;3786;-73
2022/01/12 00:12:10;;;;;;;;;;;;;;;;;;1051715;28;2950;-72
2022/01/12 00:12:40;;;;;;;;;;;;;;;;;;1051206;28;3928;-73
2022/01/12 00:13:10;;;;;;;;;;;;;;;;;;1050853;28;2113;-73
2022/01/12 00:13:41;;;;;;;;;;;;;;;;;;1050457;28;3956;-73
2022/01/12 00:14:11;;;;;;;;;;;;;;;;;;1050961;28;1828;-73
2022/01/12 00:14:41;;;;;;;;;;;;;;;;;;1044883;28;3832;-73
2022/01/12 00:15:13;;;;;;;;;;;;;;;;;;1045972;28;1979;-73
2022/01/12 00:15:44;;;;;;;;;;;;;;;;;;1046852;28;3944;-74
2022/01/12 00:16:14;;;;;;;;;;;;;;;;;;1046378;28;2228;-74
2022/01/12 06:41:46;;;;;;;;;;;;;;;;;;1046699;27;2111;-73
2022/01/12 06:42:17;;;;;;;;;;;;;;;;;;1047972;28;3016;-73
2022/01/12 06:42:47;;;;;;;;;;;;;;;;;;1047513;28;1501;-73
2022/01/12 06:43:17;;;;;;;;;;;;;;;;;;1046790;28;2875;-72
2022/01/12 06:43:48;;;;;;;;;;;;;;;;;;1047452;28;1284;-72
2022/01/12 06:44:20;;;;;;;;;;;;;;;;;;1046479;28;2198;-73
2022/01/12 06:44:50;;;;;;;;;;;;;;;;;;1047953;28;3265;-71
2022/01/12 06:45:20;;;;;;;;;;;;;;;;;;1046200;28;3264;-71
2022/01/12 06:45:51;;;;;;;;;;;;;;;;;;1046357;28;2020;-70
2022/01/12 06:46:28;;;;;;;;;;;;;;;;;;1051925;28;2039;-72
2022/01/12 06:47:02;;;;;;;;;;;;;;;;;;1052042;28;1541;-72
2022/01/12 06:47:33;;;;;;;;;;;;;;;;;;1049462;28;3412;-71
2022/01/12 06:48:03;;;;;;;;;;;;;;;;;;1049000;28;3343;-72
2022/01/12 06:48:33;;;;;;;;;;;;;;;;;;1046006;28;3171;-70
2022/01/12 06:49:03;;;;;;;;;;;;;;;;;;1046733;28;1645;-72
2022/01/12 06:49:34;;;;;;;;;;;;;;;;;;1047655;28;3569;-71
2022/01/12 06:50:05;;;;;;;;;;;;;;;;;;1048364;28;1814;-73
2022/01/12 06:50:35;;;;;;;;;;;;;;;;;;1048029;28;1538;-70
2022/01/12 06:51:06;;;;;;;;;;;;;;;;;;1047723;28;1723;-72
2022/01/12 06:51:36;;;;;;;;;;;;;;;;;;1048818;28;3220;-72
2022/01/12 06:52:06;;;;;;;;;;;;;;;;;;1048411;28;2929;-73
2022/01/12 06:52:36;;;;;;;;;;;;;;;;;;1050063;28;1545;-71
2022/01/12 06:53:07;;;;;;;;;;;;;;;;;;1048923;28;1655;-72
2022/01/12 06:53:37;;;;;;;;;;;;;;;;;;1048629;28;3543;-71
2022/01/12 06:54:07;;;;;;;;;;;;;;;;;;1043829;28;1824;-72
2022/01/12 06:54:38;;;;;;;;;;;;;;;;;;1045246;28;3175;-74
2022/01/12 06:55:09;;;;;;;;;;;;;;;;;;1045790;28;3471;-72
2022/01/12 06:55:39;;;;;;;;;;;;;;;;;;1045724;28;3558;-71
2022/01/12 06:56:09;;;;;;;;;;;;;;;;;;1054369;28;2344;-71
2022/01/12 06:56:40;;;;;;;;;;;;;;;;;;1054824;28;1641;-71
2022/01/12 06:57:10;;;;;;;;;;;;;;;;;;1050624;28;2084;-72
2022/01/12 06:57:40;;;;;;;;;;;;;;;;;;1052775;28;2728;-71
2022/01/12 06:58:10;;;;;;;;;;;;;;;;;;1046010;28;3319;-72
2022/01/12 06:58:41;;;;;;;;;;;;;;;;;;1047751;28;3278;-72
2022/01/12 06:59:12;;;;;;;;;;;;;;;;;;1047145;28;1785;-73
2022/01/12 06:59:42;;;;;;;;;;;;;;;;;;1048247;28;2887;-72
2022/01/12 07:00:13;;;;;;;;;;;;;;;;;;1046186;28;3432;-71
2022/01/12 07:00:43;;;;;;;;;;;;;;;;;;1049341;28;1913;-71
2022/01/12 07:01:13;;;;;;;;;;;;;;;;;;1048918;28;3342;-72
2022/01/12 07:01:44;;;;;;;;;;;;;;;;;;1047446;28;1909;-70
2022/01/12 07:02:14;;;;;;;;;;;;;;;;;;1047653;28;1481;-73
2022/01/12 07:02:44;;;;;;;;;;;;;;;;;;1048329;28;3301;-73
2022/01/12 07:03:15;;;;;;;;;;;;;;;;;;1048357;28;3602;-72
2022/01/12 07:03:45;;;;;;;;;;;;;;;;;;1046991;28;2982;-71
2022/01/12 07:04:15;;;;;;;;;;;;;;;;;;1049177;28;2218;-72
2022/01/12 07:04:45;;;;;;;;;;;;;;;;;;1045954;28;1485;-71
2022/01/12 07:05:16;;;;;;;;;;;;;;;;;;1046673;28;1781;-72
2022/01/12 07:05:47;;;;;;;;;;;;;;;;;;1046787;28;2158;-72
2022/01/12 07:06:18;;;;;;;;;;;;;;;;;;1047571;28;3196;-71
2022/01/12 07:06:48;;;;;;;;;;;;;;;;;;1046033;28;1738;-72
2022/01/12 07:07:18;;;;;;;;;;;;;;;;;;1047375;28;3287;-72
2022/01/12 07:07:49;;;;;;;;;;;;;;;;;;1046319;28;1802;-70
2022/01/12 07:08:19;;;;;;;;;;;;;;;;;;1047029;28;3123;-74
2022/01/12 07:08:49;;;;;;;;;;;;;;;;;;1045992;28;2738;-72
2022/01/12 07:09:19;;;;;;;;;;;;;;;;;;1046217;28;1862;-73
2022/01/12 07:09:50;;;;;;;;;;;;;;;;;;1049008;28;1724;-73
2022/01/12 07:10:20;;;;;;;;;;;;;;;;;;1044459;28;3500;-72
2022/01/12 07:10:50;;;;;;;;;;;;;;;;;;1045259;28;1780;-74
2022/01/12 07:11:21;;;;;;;;;;;;;;;;;;1044694;28;1770;-73
2022/01/12 07:11:51;;;;;;;;;;;;;;;;;;1046049;28;3225;-71
2022/01/12 07:12:21;;;;;;;;;;;;;;;;;;1048700;28;1319;-71
2022/01/12 07:12:51;;;;;;;;;;;;;;;;;;1048557;28;1622;-73
2022/01/12 07:13:22;;;;;;;;;;;;;;;;;;1046293;28;1906;-70
2022/01/12 07:13:52;;;;;;;;;;;;;;;;;;1042505;28;3661;-72
2022/01/12 07:14:23;;;;;;;;;;;;;;;;;;1042381;28;2275;-71
2022/01/12 07:14:53;;;;;;;;;;;;;;;;;;1042988;28;3245;-70
2022/01/12 07:15:24;;;;;;;;;;;;;;;;;;1045560;28;3008;-72
2022/01/12 07:15:54;;;;;;;;;;;;;;;;;;1046939;28;1447;-72
2022/01/12 07:16:24;;;;;;;;;;;;;;;;;;1047100;28;1862;-72
2022/01/12 07:16:55;;;;;;;;;;;;;;;;;;1047483;28;2911;-74
2022/01/12 07:17:25;;;;;;;;;;;;;;;;;;1055940;28;1655;-72
2022/01/12 07:17:55;;;;;;;;;;;;;;;;;;1054735;28;2608;-71
2022/01/12 07:18:28;;;;;;;;;;;;;;;;;;1054839;28;3262;-73
2022/01/12 07:18:59;;;;;;;;;;;;;;;;;;1054754;28;1641;-71
2022/01/12 07:19:29;;;;;;;;;;;;;;;;;;1048429;28;3244;-72
2022/01/12 07:19:59;;;;;;;;;;;;;;;;;;1048420;28;1855;-73
2022/01/12 07:20:30;;;;;;;;;;;;;;;;;;1049610;28;1142;-72
2022/01/12 07:21:00;;;;;;;;;;;;;;;;;;1048951;28;1810;-70
2022/01/12 07:21:30;;;;;;;;;;;;;;;;;;1048817;28;1910;-73
2022/01/12 07:22:01;;;;;;;;;;;;;;;;;;1048305;28;1904;-71
2022/01/12 07:22:31;;;;;;;;;;;;;;;;;;1048410;28;3414;-72
2022/01/12 07:23:01;;;;;;;;;;;;;;;;;;1048433;28;1395;-73
2022/01/12 07:23:32;;;;;;;;;;;;;;;;;;1046582;28;1946;-73
2022/01/12 07:24:03;;;;;;;;;;;;;;;;;;1045461;28;3195;-70
2022/01/12 07:24:33;;;;;;;;;;;;;;;;;;1048580;28;1670;-74
2022/01/12 07:25:03;;;;;;;;;;;;;;;;;;1042171;28;1976;-72
2022/01/12 07:25:34;;;;;;;;;;;;;;;;;;1041131;28;1565;-71
2022/01/12 07:26:04;;;;;;;;;;;;;;;;;;1041900;28;2206;-74
2022/01/12 07:26:34;;;;;;;;;;;;;;;;;;1039982;28;3189;-72
2022/01/12 07:27:05;;;;;;;;;;;;;;;;;;1044213;28;3318;-72
2022/01/12 07:27:35;;;;;;;;;;;;;;;;;;1048949;28;2753;-73
2022/01/12 07:28:06;;;;;;;;;;;;;;;;;;1047102;28;3144;-72
2022/01/12 07:28:36;;;;;;;;;;;;;;;;;;1048705;28;1729;-73
2022/01/12 07:29:09;;;;;;;;;;;;;;;;;;1048674;28;1702;-75
2022/01/12 07:29:39;;;;;;;;;;;;;;;;;;1049243;28;1637;-71
2022/01/12 07:30:10;;;;;;;;;;;;;;;;;;1044904;28;3583;-72
2022/01/12 07:30:40;;;;;;;;;;;;;;;;;;1047795;28;3213;-71
2022/01/12 07:31:10;;;;;;;;;;;;;;;;;;1045680;28;3397;-71
2022/01/12 07:31:41;;;;;;;;;;;;;;;;;;1044745;28;3322;-75
2022/01/12 07:32:11;;;;;;;;;;;;;;;;;;1047185;28;3472;-74
2022/01/12 07:32:41;;;;;;;;;;;;;;;;;;1047123;28;2410;-73
2022/01/12 07:33:12;;;;;;;;;;;;;;;;;;1051931;28;2950;-69
2022/01/12 07:33:42;;;;;;;;;;;;;;;;;;1052073;28;2353;-75
2022/01/12 07:34:14;;;;;;;;;;;;;;;;;;1052131;28;3549;-74
2022/01/12 07:34:44;;;;;;;;;;;;;;;;;;1051339;27;2843;-72
2022/01/12 07:35:15;;;;;;;;;;;;;;;;;;1055222;28;1737;-72
2022/01/12 07:35:45;;;;;;;;;;;;;;;;;;1054912;28;1470;-72
2022/01/12 07:36:16;;;;;;;;;;;;;;;;;;1055847;28;1674;-72
2022/01/12 07:36:46;;;;;;;;;;;;;;;;;;1054011;28;3248;-73
2022/01/12 07:37:16;;;;;;;;;;;;;;;;;;1048007;28;3264;-72
2022/01/12 07:37:47;;;;;;;;;;;;;;;;;;1047308;28;1788;-72
2022/01/12 07:38:17;;;;;;;;;;;;;;;;;;1046172;28;2901;-72
2022/01/12 07:38:49;;;;;;;;;;;;;;;;;;1046368;28;1868;-73
2022/01/12 07:39:19;;;;;;;;;;;;;;;;;;1043139;28;3093;-72
2022/01/12 07:39:50;;;;;;;;;;;;;;;;;;1045422;28;1610;-73
2022/01/12 07:40:20;;;;;;;;;;;;;;;;;;1049426;28;3109;-75
2022/01/12 07:40:50;;;;;;;;;;;;;;;;;;1044653;28;3403;-74
2022/01/12 07:41:20;;;;;;;;;;;;;;;;;;1047598;28;3401;-71
2022/01/12 07:41:51;;;;;;;;;;;;;;;;;;1047881;28;2301;-73
2022/01/12 07:42:21;;;;;;;;;;;;;;;;;;1048400;28;1861;-73
2022/01/12 07:42:52;;;;;;;;;;;;;;;;;;1047334;28;2100;-73
2022/01/12 07:43:22;;;;;;;;;;;;;;;;;;1047864;28;1876;-74
2022/01/12 07:43:52;;;;;;;;;;;;;;;;;;1048107;28;2976;-76
2022/01/12 07:44:22;;;;;;;;;;;;;;;;;;1043552;28;2020;-72
2022/01/12 07:44:59;;;;;;;;;;;;;;;;;;1048493;28;2217;-73
2022/01/12 07:45:29;;;;;;;;;;;;;;;;;;1046697;28;3226;-70
2022/01/12 07:45:59;;;;;;;;;;;;;;;;;;1046364;28;3454;-75
2022/01/12 07:46:30;;;;;;;;;;;;;;;;;;1046310;28;4498;-74
2022/01/12 07:47:00;;;;;;;;;;;;;;;;;;1047769;28;3169;-73
2022/01/12 07:47:31;;;;;;;;;;;;;;;;;;1045983;28;3243;-75
2022/01/12 07:48:01;;;;;;;;;;;;;;;;;;1046527;28;1890;-71
2022/01/12 07:48:31;;;;;;;;;;;;;;;;;;1048734;28;1851;-73
2022/01/12 07:49:02;;;;;;;;;;;;;;;;;;1045863;28;1932;-74
2022/01/12 07:49:34;;;;;;;;;;;;;;;;;;1054956;28;1596;-74
2022/01/12 07:50:05;;;;;;;;;;;;;;;;;;1048277;28;1976;-73
2022/01/12 07:50:35;;;;;;;;;;;;;;;;;;1046843;28;3189;-73
2022/01/12 07:51:05;;;;;;;;;;;;;;;;;;1045012;28;3211;-74
2022/01/12 07:51:36;;;;;;;;;;;;;;;;;;1044455;28;3080;-73
2022/01/12 07:52:06;;;;;;;;;;;;;;;;;;1045866;28;3631;-73
2022/01/12 07:52:36;;;;;;;;;;;;;;;;;;1046600;28;1708;-74
2022/01/12 07:53:06;;;;;;;;;;;;;;;;;;1042769;28;1876;-73
2022/01/12 07:53:37;;;;;;;;;;;;;;;;;;1042801;28;3084;-72
2022/01/12 07:54:07;;;;;;;;;;;;;;;;;;1042839;28;3529;-74
2022/01/12 07:54:37;;;;;;;;;;;;;;;;;;1042035;28;3796;-73
2022/01/12 07:55:08;;;;;;;;;;;;;;;;;;1043316;28;2249;-73
2022/01/12 07:55:38;;;;;;;;;;;;;;;;;;1043731;28;3104;-76
2022/01/12 07:56:08;;;;;;;;;;;;;;;;;;1045371;28;3490;-73
2022/01/12 07:56:39;;;;;;;;;;;;;;;;;;1041321;28;1853;-74
2022/01/12 07:57:09;;;;;;;;;;;;;;;;;;1041353;28;3095;-72
2022/01/12 07:57:42;;;;;;;;;;;;;;;;;;1041843;28;2007;-73
2022/01/12 07:58:12;;;;;;;;;;;;;;;;;;1043143;28;4334;-72
2022/01/12 07:58:42;;;;;;;;;;;;;;;;;;1043215;28;3229;-70
2022/01/12 07:59:13;;;;;;;;;;;;;;;;;;1043151;28;1727;-75
2022/01/12 07:59:43;;;;;;;;;;;;;;;;;;1042395;28;1964;-71
2022/01/12 08:00:14;;;;;;;;;;;;;;;;;;1037839;28;3132;-71
2022/01/12 08:00:45;;;;;;;;;;;;;;;;;;1040466;28;3502;-74
2022/01/12 08:01:15;;;;;;;;;;;;;;;;;;1041232;28;3880;-74
2022/01/12 08:01:45;;;;;;;;;;;;;;;;;;1045334;28;2686;-72
2022/01/12 08:02:16;;;;;;;;;;;;;;;;;;1045726;28;1993;-74
2022/01/12 08:02:46;;;;;;;;;;;;;;;;;;1043251;28;3232;-73
2022/01/12 08:03:20;;;;;;;;;;;;;;;;;;1043525;28;1763;-74
2022/01/12 08:03:50;;;;;;;;;;;;;;;;;;1041038;28;2629;-74
2022/01/12 08:04:20;;;;;;;;;;;;;;;;;;1040834;28;3392;-74
2022/01/12 08:04:51;;;;;;;;;;;;;;;;;;1037865;28;1891;-73
2022/01/12 08:05:21;;;;;;;;;;;;;;;;;;1036646;28;3367;-74
2022/01/12 08:05:51;;;;;;;;;;;;;;;;;;1045135;28;1654;-71
2022/01/12 08:06:22;;;;;;;;;;;;;;;;;;1044404;28;1618;-73
2022/01/12 08:06:52;;;;;;;;;;;;;;;;;;1042762;28;2174;-71
2022/01/12 08:07:22;;;;;;;;;;;;;;;;;;1039849;28;1451;-71
2022/01/12 08:07:54;;;;;;;;;;;;;;;;;;1040424;28;1716;-74
2022/01/12 08:08:25;;;;;;;;;;;;;;;;;;1041921;28;1608;-73
2022/01/12 08:08:56;;;;;;;;;;;;;;;;;;1041915;28;3186;-72
2022/01/12 08:09:26;;;;;;;;;;;;;;;;;;1051159;28;3322;-72
2022/01/12 08:09:56;;;;;;;;;;;;;;;;;;1051692;28;1602;-72
2022/01/12 08:10:27;;;;;;;;;;;;;;;;;;1052436;28;2374;-71
2022/01/12 08:10:57;;;;;;;;;;;;;;;;;;1050399;28;3665;-71
2022/01/12 08:11:29;;;;;;;;;;;;;;;;;;1045163;28;1720;-73
2022/01/12 08:11:59;;;;;;;;;;;;;;;;;;1043526;28;2627;-73
2022/01/12 08:12:29;;;;;;;;;;;;;;;;;;1044211;28;3230;-72
2022/01/12 08:12:59;;;;;;;;;;;;;;;;;;1045184;28;2330;-73
2022/01/12 08:13:30;;;;;;;;;;;;;;;;;;1045767;28;2348;-72
2022/01/12 08:14:00;;;;;;;;;;;;;;;;;;1045168;28;3367;-71
2022/01/12 08:14:30;;;;;;;;;;;;;;;;;;1043537;28;3548;-73
2022/01/12 08:15:01;;;;;;;;;;;;;;;;;;1043310;28;3537;-72
2022/01/12 08:15:31;;;;;;;;;;;;;;;;;;1041231;28;2819;-72
2022/01/12 08:16:01;;;;;;;;;;;;;;;;;;1043995;28;1660;-72
2022/01/12 08:16:31;;;;;;;;;;;;;;;;;;1044264;28;1628;-73
2022/01/12 08:17:02;;;;;;;;;;;;;;;;;;1045515;28;2772;-73
2022/01/12 08:17:32;;;;;;;;;;;;;;;;;;1045257;28;3249;-75
2022/01/12 08:18:03;;;;;;;;;;;;;;;;;;1045137;28;2179;-73
2022/01/12 08:18:33;;;;;;;;;;;;;;;;;;1045298;28;2358;-73
2022/01/12 08:19:04;;;;;;;;;;;;;;;;;;1043093;28;3506;-71
2022/01/12 08:19:36;;;;;;;;;;;;;;;;;;1044199;28;1993;-75
2022/01/12 08:20:10;;;;;;;;;;;;;;;;;;1043573;28;3552;-72
2022/01/12 08:20:42;;;;;;;;;;;;;;;;;;1042244;28;3459;-73
2022/01/12 08:21:12;;;;;;;;;;;;;;;;;;1043695;28;2537;-73
2022/01/12 08:21:42;;;;;;;;;;;;;;;;;;1042758;28;3727;-72
2022/01/12 08:22:13;;;;;;;;;;;;;;;;;;1043360;28;3534;-73
2022/01/12 08:22:43;;;;;;;;;;;;;;;;;;1045713;28;1651;-72
2022/01/12 08:23:13;;;;;;;;;;;;;;;;;;1047479;28;3647;-74
2022/01/12 08:23:44;;;;;;;;;;;;;;;;;;1050187;28;3162;-70
2022/01/12 08:24:14;;;;;;;;;;;;;;;;;;1051463;28;1782;-72
2022/01/12 08:24:44;;;;;;;;;;;;;;;;;;1050916;28;3289;-72
2022/01/12 08:25:15;;;;;;;;;;;;;;;;;;1044127;28;3300;-73
2022/01/12 08:25:45;;;;;;;;;;;;;;;;;;1043541;28;3652;-71
2022/01/12 08:26:15;;;;;;;;;;;;;;;;;;1045595;28;1832;-71
2022/01/12 08:26:45;;;;;;;;;;;;;;;;;;1045263;28;3179;-72
2022/01/12 08:27:16;;;;;;;;;;;;;;;;;;1044845;28;2455;-72
2022/01/12 08:27:46;;;;;;;;;;;;;;;;;;1045516;28;1609;-72
2022/01/12 08:28:16;;;;;;;;;;;;;;;;;;1044559;28;3083;-72
2022/01/12 08:28:47;;;;;;;;;;;;;;;;;;1044630;28;1703;-71
2022/01/12 08:29:17;;;;;;;;;;;;;;;;;;1044624;28;3615;-71
2022/01/12 08:29:50;;;;;;;;;;;;;;;;;;1043901;28;3230;-72
2022/01/12 08:30:27;;;;;;;;;;;;;;;;;;1042530;28;3795;-72
2022/01/12 08:30:58;;;;;;;;;;;;;;;;;;1043351;28;3414;-73
2022/01/12 08:31:28;;;;;;;;;;;;;;;;;;1045403;28;1594;-74
2022/01/12 08:31:58;;;;;;;;;;;;;;;;;;1043487;28;3506;-73
2022/01/12 08:32:29;;;;;;;;;;;;;;;;;;1044127;28;1660;-71
2022/01/12 08:32:59;;;;;;;;;;;;;;;;;;1043889;28;3194;-71
2022/01/12 08:33:29;;;;;;;;;;;;;;;;;;1038093;28;4442;-73
2022/01/12 08:34:00;;;;;;;;;;;;;;;;;;1037236;28;1883;-73
2022/01/12 08:34:30;;;;;;;;;;;;;;;;;;1037704;28;2301;-73
2022/01/12 08:35:00;;;;;;;;;;;;;;;;;;1040612;28;3551;-73
2022/01/12 08:35:31;;;;;;;;;;;;;;;;;;1044008;28;1642;-70
2022/01/12 08:36:01;;;;;;;;;;;;;;;;;;1041708;28;1903;-70
2022/01/12 08:36:32;;;;;;;;;;;;;;;;;;1041589;28;1851;-73
2022/01/12 08:37:02;;;;;;;;;;;;;;;;;;1040363;28;3098;-73
2022/01/12 08:37:35;;;;;;;;;;;;;;;;;;1039905;28;1688;-72
2022/01/12 08:38:05;;;;;;;;;;;;;;;;;;1039991;28;2795;-73
2022/01/12 08:38:36;;;;;;;;;;;;;;;;;;1039917;28;3667;-75
2022/01/12 08:39:08;;;;;;;;;;;;;;;;;;1041657;28;1741;-74
2022/01/12 08:39:38;;;;;;;;;;;;;;;;;;1037776;28;1870;-72
2022/01/12 08:40:08;;;;;;;;;;;;;;;;;;1042357;28;2283;-74
2022/01/12 08:40:41;;;;;;;;;;;;;;;;;;1040664;28;3152;-71
2022/01/12 08:41:12;;;;;;;;;;;;;;;;;;1041833;28;1793;-75
2022/01/12 08:41:42;;;;;;;;;;;;;;;;;;1045793;28;1966;-73
2022/01/12 08:42:12;;;;;;;;;;;;;;;;;;1045175;28;1701;-73
2022/01/12 08:42:43;;;;;;;;;;;;;;;;;;1043187;28;2930;-75
2022/01/12 08:43:13;;;;;;;;;;;;;;;;;;1044046;28;2450;-72
2022/01/12 08:43:43;;;;;;;;;;;;;;;;;;1044746;28;1737;-74
2022/01/12 08:44:13;;;;;;;;;;;;;;;;;;1042369;28;1825;-75
2022/01/12 08:44:44;;;;;;;;;;;;;;;;;;1044937;28;1546;-73
2022/01/12 08:45:15;;;;;;;;;;;;;;;;;;1040748;28;2804;-73
2022/01/12 08:45:45;;;;;;;;;;;;;;;;;;1043696;28;3185;-72
2022/01/12 08:46:15;;;;;;;;;;;;;;;;;;1043107;28;3295;-73
2022/01/12 08:46:45;;;;;;;;;;;;;;;;;;1043385;28;3447;-73
2022/01/12 08:47:16;;;;;;;;;;;;;;;;;;1044042;28;2212;-72
2022/01/12 08:47:46;;;;;;;;;;;;;;;;;;1045907;28;1601;-73
2022/01/12 08:48:17;;;;;;;;;;;;;;;;;;1044320;28;3279;-75
2022/01/12 08:48:47;;;;;;;;;;;;;;;;;;1043153;28;3567;-72
2022/01/12 08:49:17;;;;;;;;;;;;;;;;;;1039615;28;3506;-73
2022/01/12 08:49:47;;;;;;;;;;;;;;;;;;1040184;28;3462;-72
2022/01/12 08:50:18;;;;;;;;;;;;;;;;;;1040694;28;3565;-74
2022/01/12 08:50:48;;;;;;;;;;;;;;;;;;1039812;28;3849;-74
2022/01/12 08:51:18;;;;;;;;;;;;;;;;;;1044301;28;2211;-73
2022/01/12 08:51:49;;;;;;;;;;;;;;;;;;1043267;28;3460;-73
2022/01/12 08:52:22;;;;;;;;;;;;;;;;;;1043248;28;2532;-71
2022/01/12 08:52:52;;;;;;;;;;;;;;;;;;1042957;28;2120;-72
2022/01/12 08:53:22;;;;;;;;;;;;;;;;;;1043584;28;3632;-73
2022/01/12 08:53:52;;;;;;;;;;;;;;;;;;1042573;28;3378;-72
2022/01/12 08:54:23;;;;;;;;;;;;;;;;;;1043660;28;3016;-74
2022/01/12 08:54:54;;;;;;;;;;;;;;;;;;1043253;28;3281;-74
2022/01/12 08:55:24;;;;;;;;;;;;;;;;;;1043584;28;3617;-73
2022/01/12 08:55:54;;;;;;;;;;;;;;;;;;1043228;28;3506;-73
2022/01/12 08:56:25;;;;;;;;;;;;;;;;;;1042763;28;3271;-74
2022/01/12 08:56:55;;;;;;;;;;;;;;;;;;1043684;28;3492;-72
2022/01/12 08:57:29;;;;;;;;;;;;;;;;;;1044264;28;3622;-71
2022/01/12 08:57:59;;;;;;;;;;;;;;;;;;1044784;28;1608;-72
2022/01/12 08:58:30;;;;;;;;;;;;;;;;;;1043293;28;1642;-71
2022/01/12 08:59:00;;;;;;;;;;;;;;;;;;1042286;28;3552;-73
2022/01/12 08:59:30;;;;;;;;;;;;;;;;;;1043655;28;2417;-75
2022/01/12 09:00:01;;;;;;;;;;;;;;;;;;1043960;28;4539;-73
2022/01/12 09:00:31;;;;;;;;;;;;;;;;;;1041263;28;2973;-74
2022/01/12 09:01:03;;;;;;;;;;;;;;;;;;1045697;28;3205;-73
2022/01/12 09:01:33;;;;;;;;;;;;;;;;;;1044466;28;3342;-73
2022/01/12 09:02:06;;;;;;;;;;;;;;;;;;1036361;28;3747;-72
2022/01/12 09:02:36;;;;;;;;;;;;;;;;;;1038265;28;1809;-73
2022/01/12 09:03:07;;;;;;;;;;;;;;;;;;1037564;28;1816;-73
2022/01/12 09:03:38;;;;;;;;;;;;;;;;;;1039524;28;3370;-72
2022/01/12 09:04:08;;;;;;;;;;;;;;;;;;1044186;28;1807;-73
2022/01/12 09:04:39;;;;;;;;;;;;;;;;;;1045237;28;1671;-74
2022/01/12 09:05:11;;;;;;;;;;;;;;;;;;1043144;28;3219;-72
2022/01/12 09:05:41;;;;;;;;;;;;;;;;;;1044281;28;3776;-73
2022/01/12 09:06:13;;;;;;;;;;;;;;;;;;1043840;28;1736;-76
2022/01/12 09:06:43;;;;;;;;;;;;;;;;;;1045310;28;3819;-74
2022/01/12 09:07:13;;;;;;;;;;;;;;;;;;1043582;28;3770;-73
2022/01/12 09:07:43;;;;;;;;;;;;;;;;;;1044154;28;3447;-73
2022/01/12 09:08:14;;;;;;;;;;;;;;;;;;1046023;28;2076;-74
2022/01/12 09:08:45;;;;;;;;;;;;;;;;;;1047357;28;1425;-74
2022/01/12 09:09:15;;;;;;;;;;;;;;;;;;1041055;28;3475;-73
2022/01/12 09:09:45;;;;;;;;;;;;;;;;;;1042477;28;3506;-74
2022/01/12 09:10:16;;;;;;;;;;;;;;;;;;1041500;28;3630;-73
2022/01/12 09:10:46;;;;;;;;;;;;;;;;;;1037271;28;2350;-76
2022/01/12 09:11:18;;;;;;;;;;;;;;;;;;1044540;28;2968;-73
2022/01/12 09:11:48;;;;;;;;;;;;;;;;;;1042502;28;2834;-73
2022/01/12 09:12:18;;;;;;;;;;;;;;;;;;1047401;28;4125;-73
2022/01/12 09:12:49;;;;;;;;;;;;;;;;;;1052397;28;2030;-73
2022/01/12 09:13:19;;;;;;;;;;;;;;;;;;1044179;28;3145;-73
2022/01/12 09:13:49;;;;;;;;;;;;;;;;;;1042933;28;1965;-73
2022/01/12 09:14:19;;;;;;;;;;;;;;;;;;1045214;28;3187;-73
2022/01/12 09:14:51;;;;;;;;;;;;;;;;;;1042843;28;3560;-73
2022/01/12 09:15:25;;;;;;;;;;;;;;;;;;1045383;28;3499;-73
2022/01/12 09:15:55;;;;;;;;;;;;;;;;;;1044535;28;1768;-73
2022/01/12 09:16:25;;;;;;;;;;;;;;;;;;1045464;28;3255;-72
2022/01/12 09:16:56;;;;;;;;;;;;;;;;;;1044804;28;2772;-73
2022/01/12 09:17:27;;;;;;;;;;;;;;;;;;1043746;28;1544;-72
2022/01/12 09:17:57;;;;;;;;;;;;;;;;;;1042844;28;1685;-73
2022/01/12 09:18:27;;;;;;;;;;;;;;;;;;1042711;28;3511;-73
2022/01/12 09:18:57;;;;;;;;;;;;;;;;;;1040642;28;2959;-72
2022/01/12 09:19:28;;;;;;;;;;;;;;;;;;1038350;28;3519;-72
2022/01/12 09:19:58;;;;;;;;;;;;;;;;;;1045756;28;2262;-73
2022/01/12 09:20:29;;;;;;;;;;;;;;;;;;1041650;28;2014;-72
2022/01/12 09:20:59;;;;;;;;;;;;;;;;;;1044421;28;5131;-72
2022/01/12 09:21:30;;;;;;;;;;;;;;;;;;1045639;28;1993;-72
2022/01/12 09:22:00;;;;;;;;;;;;;;;;;;1040756;28;3528;-72
2022/01/12 09:22:30;;;;;;;;;;;;;;;;;;1046013;28;1682;-73
2022/01/12 09:23:00;;;;;;;;;;;;;;;;;;1045660;28;1675;-72
2022/01/12 09:23:31;;;;;;;;;;;;;;;;;;1046098;28;1682;-73
2022/01/12 09:24:01;;;;;;;;;;;;;;;;;;1044346;28;2051;-73
2022/01/12 09:24:31;;;;;;;;;;;;;;;;;;1043533;28;3240;-72
2022/01/12 09:25:02;;;;;;;;;;;;;;;;;;1051458;27;2066;-73
2022/01/12 09:25:35;;;;;;;;;;;;;;;;;;1053020;28;2045;-74
2022/01/12 09:26:05;;;;;;;;;;;;;;;;;;1051259;28;1593;-74
2022/01/12 09:26:36;;;;;;;;;;;;;;;;;;1051550;28;1663;-73
2022/01/12 09:27:06;;;;;;;;;;;;;;;;;;1043294;28;3501;-74
2022/01/12 09:27:37;;;;;;;;;;;;;;;;;;1044923;28;3012;-73
2022/01/12 09:28:10;;;;;;;;;;;;;;;;;;1044907;28;1669;-73
2022/01/12 09:28:40;;;;;;;;;;;;;;;;;;1045067;28;3136;-73
2022/01/12 09:29:11;;;;;;;;;;;;;;;;;;1042480;28;3663;-74
2022/01/12 09:29:41;;;;;;;;;;;;;;;;;;1040475;28;3685;-73
2022/01/12 09:30:12;;;;;;;;;;;;;;;;;;1040470;28;3655;-73
2022/01/12 09:30:43;;;;;;;;;;;;;;;;;;1043567;28;4038;-73
2022/01/12 09:31:13;;;;;;;;;;;;;;;;;;1043530;28;5383;-72
2022/01/12 09:31:44;;;;;;;;;;;;;;;;;;1042526;28;3671;-73
2022/01/12 09:32:14;;;;;;;;;;;;;;;;;;1042740;28;3494;-73
2022/01/12 09:32:45;;;;;;;;;;;;;;;;;;1044192;28;3515;-73
2022/01/12 09:33:15;;;;;;;;;;;;;;;;;;1043516;28;3620;-73
2022/01/12 09:33:49;;;;;;;;;;;;;;;;;;1042651;28;4448;-72
2022/01/12 09:34:19;;;;;;;;;;;;;;;;;;1042197;28;3153;-73
2022/01/12 09:34:50;;;;;;;;;;;;;;;;;;1044088;28;3447;-73
2022/01/12 09:35:20;;;;;;;;;;;;;;;;;;1043951;28;2394;-73
2022/01/12 09:35:53;;;;;;;;;;;;;;;;;;1043273;28;1743;-73
2022/01/12 09:36:23;;;;;;;;;;;;;;;;;;1044472;28;3723;-73
2022/01/12 09:36:53;;;;;;;;;;;;;;;;;;1043663;28;3290;-73
2022/01/12 09:37:24;;;;;;;;;;;;;;;;;;1046042;28;1507;-73
2022/01/12 09:37:54;;;;;;;;;;;;;;;;;;1045855;28;1660;-73
2022/01/12 09:38:24;;;;;;;;;;;;;;;;;;1045167;28;2976;-72
2022/01/12 09:38:54;;;;;;;;;;;;;;;;;;1044162;28;3876;-73
2022/01/12 09:39:25;;;;;;;;;;;;;;;;;;1051038;28;2791;-73
2022/01/12 09:39:55;;;;;;;;;;;;;;;;;;1047925;28;3594;-75
2022/01/12 09:40:25;;;;;;;;;;;;;;;;;;1049025;28;2721;-74
2022/01/12 09:40:56;;;;;;;;;;;;;;;;;;1049513;28;2117;-75
2022/01/12 09:41:27;;;;;;;;;;;;;;;;;;1039820;28;4245;-72
2022/01/12 09:41:58;;;;;;;;;;;;;;;;;;1042313;28;3857;-73
2022/01/12 09:42:28;;;;;;;;;;;;;;;;;;1043608;28;3246;-72
2022/01/12 09:43:03;;;;;;;;;;;;;;;;;;1044808;28;2525;-71
2022/01/12 09:43:35;;;;;;;;;;;;;;;;;;1043860;28;3765;-75
2022/01/12 09:44:06;;;;;;;;;;;;;;;;;;1042472;28;1673;-74
2022/01/12 09:44:37;;;;;;;;;;;;;;;;;;1043253;28;2212;-74
2022/01/12 09:45:14;;;;;;;;;;;;;;;;;;1041537;28;2930;-73
2022/01/12 09:45:49;;;;;;;;;;;;;;;;;;1043316;28;2854;-74
2022/01/12 09:46:22;;;;;;;;;;;;;;;;;;1043046;28;3515;-74
2022/01/12 09:46:52;;;;;;;;;;;;;;;;;;1043014;28;3317;-74
2022/01/12 09:47:23;;;;;;;;;;;;;;;;;;1043811;28;1837;-73
2022/01/12 09:47:53;;;;;;;;;;;;;;;;;;1044253;28;2244;-73
2022/01/12 09:48:24;;;;;;;;;;;;;;;;;;1044705;28;1827;-73
2022/01/12 09:48:55;;;;;;;;;;;;;;;;;;1044358;28;3215;-74
2022/01/12 09:49:26;;;;;;;;;;;;;;;;;;1043610;28;2905;-73
2022/01/12 09:49:56;;;;;;;;;;;;;;;;;;1042321;28;3352;-74
2022/01/12 09:50:27;;;;;;;;;;;;;;;;;;1043990;28;1735;-74
2022/01/12 09:50:59;;;;;;;;;;;;;;;;;;1051954;28;1732;-74
2022/01/12 09:51:29;;;;;;;;;;;;;;;;;;1051325;28;1652;-74
2022/01/12 09:52:00;;;;;;;;;;;;;;;;;;1051147;28;3301;-73
2022/01/12 09:52:30;;;;;;;;;;;;;;;;;;1050295;28;2195;-74
2022/01/12 09:53:00;;;;;;;;;;;;;;;;;;1044474;28;3488;-74
2022/01/12 09:53:32;;;;;;;;;;;;;;;;;;1042904;28;3486;-74
2022/01/12 09:54:02;;;;;;;;;;;;;;;;;;1044208;28;3350;-74
2022/01/12 09:54:33;;;;;;;;;;;;;;;;;;1042065;28;3233;-71
2022/01/12 09:55:03;;;;;;;;;;;;;;;;;;1042161;28;3059;-74
2022/01/12 09:55:34;;;;;;;;;;;;;;;;;;1042786;28;1614;-72
2022/01/12 09:56:09;;;;;;;;;;;;;;;;;;1038707;28;2646;-74
2022/01/12 09:56:39;;;;;;;;;;;;;;;;;;1044565;28;2824;-74
2022/01/12 09:57:09;;;;;;;;;;;;;;;;;;1043492;28;1906;-73
2022/01/12 09:57:40;;;;;;;;;;;;;;;;;;1040627;28;6093;-73
2022/01/12 09:58:10;;;;;;;;;;;;;;;;;;1042534;28;3379;-73